Duck Lake, Canada
Current Conditions -  °F | °C
As of 6:00 AM on Wednesday 28 Jan 2015 (Local Time) from CYPA Reporting Station
Light Snow Light Snow  
Wind Chill:   Ceiling: 2000
Heat Index: 12°   Visibility: 1.5mi
Dew Point:   Wind: 7mph
Humidity: 85%   Direction: 60°ENE
Pressure: 30.01"   Gusts: NA
Location:  52.8°N, 106.22°W
Report Text: CYPA 281200Z 06006KT 1 1/2SM -SN VV020 M11/M13 A3001 RMK SN8 /S04/ PRESRR SLP192
Loading
Personal Weather Stations






























Interactive Weather Map New forecast layout! Learn more

10-Day Weather Forecast

Advertisements
Track Severe Weather on mobile